createdAt,value
2019-03-17T00:00:47.195Z,69.14
2019-03-17T00:03:14.954Z,69.22
2019-03-17T00:05:42.741Z,70.37
2019-03-17T00:08:10.515Z,70.35
2019-03-17T00:10:38.393Z,70.07
2019-03-17T00:13:06.192Z,69.93
2019-03-17T00:15:34.085Z,69.94
2019-03-17T00:18:01.878Z,70.38
2019-03-17T00:20:29.622Z,70.32
2019-03-17T00:22:57.388Z,70.75
2019-03-17T00:25:25.133Z,70.77
2019-03-17T00:27:52.938Z,71.36
2019-03-17T00:30:20.722Z,71.50
2019-03-17T00:32:48.493Z,70.97
2019-03-17T00:35:16.258Z,71.67
2019-03-17T00:37:44.047Z,72.12
2019-03-17T00:40:11.819Z,71.95
2019-03-17T00:42:39.686Z,72.44
2019-03-17T00:45:07.556Z,72.69
2019-03-17T00:47:35.306Z,73.16
2019-03-17T00:50:03.523Z,72.87
2019-03-17T00:52:31.306Z,72.52
2019-03-17T00:54:59.038Z,72.54
2019-03-17T00:57:26.810Z,73.15
2019-03-17T00:59:54.563Z,73.75
2019-03-17T01:02:22.326Z,73.91
2019-03-17T01:04:56.446Z,73.27
2019-03-17T01:07:22.214Z,73.56
2019-03-17T01:09:49.993Z,73.22
2019-03-17T01:12:17.789Z,73.26
2019-03-17T01:14:45.561Z,72.89
2019-03-17T01:17:13.291Z,72.62
2019-03-17T01:19:41.071Z,72.90
2019-03-17T01:22:08.832Z,72.83
2019-03-17T01:24:36.591Z,73.17
2019-03-17T01:27:04.341Z,73.32
2019-03-17T01:29:32.134Z,73.78
2019-03-17T01:31:59.870Z,73.28
2019-03-17T01:34:27.676Z,73.24
2019-03-17T01:36:55.453Z,73.65
2019-03-17T01:39:23.246Z,74.11
2019-03-17T01:41:51.390Z,74.34
2019-03-17T01:44:19.231Z,74.08
2019-03-17T01:46:46.960Z,74.16
2019-03-17T01:49:14.711Z,73.97
2019-03-17T01:51:42.471Z,73.78
2019-03-17T01:54:10.221Z,74.06
2019-03-17T01:56:37.991Z,73.76
2019-03-17T01:59:05.728Z,73.93
2019-03-17T02:01:33.471Z,73.52
2019-03-17T02:04:01.255Z,73.93
2019-03-17T02:06:28.976Z,73.81
2019-03-17T02:08:56.710Z,73.69
2019-03-17T02:11:24.451Z,73.52
2019-03-17T02:13:52.235Z,73.74
2019-03-17T02:16:19.993Z,74.25
2019-03-17T02:18:47.801Z,74.08
2019-03-17T02:21:15.539Z,74.30
2019-03-17T02:23:43.273Z,74.54
2019-03-17T02:26:11.012Z,75.05
2019-03-17T02:28:38.775Z,74.78
2019-03-17T02:31:06.544Z,74.31
2019-03-17T02:33:34.275Z,74.88
2019-03-17T02:36:02.037Z,74.70
2019-03-17T02:38:29.992Z,74.90
2019-03-17T02:40:57.835Z,74.35
2019-03-17T02:43:25.546Z,74.45
2019-03-17T02:45:53.377Z,74.78
2019-03-17T02:48:21.202Z,75.10
2019-03-17T02:50:48.958Z,75.16
2019-03-17T02:53:16.718Z,74.64
2019-03-17T02:55:44.485Z,74.53
2019-03-17T02:58:12.237Z,74.22
2019-03-17T03:00:40.109Z,74.23
2019-03-17T03:03:07.856Z,74.16
2019-03-17T03:05:35.652Z,74.05
2019-03-17T03:08:03.400Z,74.23
2019-03-17T03:10:32.116Z,74.17
2019-03-17T03:13:00.230Z,74.48
2019-03-17T03:15:28.035Z,73.88
2019-03-17T03:17:55.767Z,74.13
2019-03-17T03:20:23.546Z,73.82
2019-03-17T03:22:51.282Z,73.78
2019-03-17T03:25:19.120Z,74.04
2019-03-17T03:27:46.869Z,74.16
2019-03-17T03:30:14.762Z,74.37
2019-03-17T03:32:42.479Z,74.44
2019-03-17T03:35:10.555Z,74.70
2019-03-17T03:37:38.278Z,74.85
2019-03-17T03:40:06.555Z,74.83
2019-03-17T03:42:34.305Z,75.47
2019-03-17T03:45:02.027Z,75.71
2019-03-17T03:47:29.789Z,74.88
2019-03-17T03:49:57.535Z,75.45
2019-03-17T03:52:25.278Z,75.27
2019-03-17T03:54:53.075Z,75.01
2019-03-17T03:57:20.916Z,75.17
2019-03-17T03:59:48.746Z,76.06
2019-03-17T04:02:16.522Z,75.89
2019-03-17T04:04:44.290Z,75.93
2019-03-17T04:07:12.061Z,75.50
2019-03-17T04:09:39.794Z,75.24
2019-03-17T04:12:07.554Z,75.53
2019-03-17T04:14:35.306Z,75.48
2019-03-17T04:17:03.114Z,75.48
2019-03-17T04:19:30.869Z,75.57
2019-03-17T04:21:58.618Z,75.99
2019-03-17T04:24:27.504Z,75.57
2019-03-17T04:26:55.235Z,75.40
2019-03-17T04:29:23.025Z,75.22
2019-03-17T04:31:50.740Z,75.29
2019-03-17T04:34:18.478Z,75.81
2019-03-17T04:36:46.219Z,74.98
2019-03-17T04:39:14.017Z,74.77
2019-03-17T04:41:41.768Z,74.75
2019-03-17T04:44:20.359Z,74.90
2019-03-17T04:46:39.158Z,74.87
2019-03-17T04:49:06.892Z,75.10
2019-03-17T04:51:34.646Z,75.10
2019-03-17T04:54:02.361Z,75.40
2019-03-17T04:56:30.116Z,75.24
2019-03-17T04:58:57.882Z,75.35
2019-03-17T05:01:25.669Z,74.94
2019-03-17T05:03:53.472Z,74.97
2019-03-17T05:06:21.215Z,75.17
2019-03-17T05:08:48.954Z,74.74
2019-03-17T05:11:16.668Z,75.01
2019-03-17T05:13:44.431Z,74.85
2019-03-17T05:16:12.148Z,74.59
2019-03-17T05:18:39.942Z,74.95
2019-03-17T05:21:07.662Z,74.70
2019-03-17T05:23:35.415Z,74.80
2019-03-17T05:26:03.150Z,73.97
2019-03-17T05:28:30.913Z,74.05
2019-03-17T05:30:58.634Z,73.93
2019-03-17T05:33:26.442Z,74.20
2019-03-17T05:35:54.175Z,74.43
2019-03-17T05:38:21.952Z,74.37
2019-03-17T05:40:49.661Z,74.35
2019-03-17T05:43:17.433Z,74.22
2019-03-17T05:45:45.175Z,73.67
2019-03-17T05:48:12.972Z,73.62
2019-03-17T05:50:40.711Z,73.29
2019-03-17T05:53:08.496Z,73.00
2019-03-17T05:55:36.235Z,72.53
2019-03-17T05:58:04.031Z,72.43
2019-03-17T06:00:31.778Z,72.70
2019-03-17T06:02:59.561Z,72.22
2019-03-17T06:05:27.315Z,72.14
2019-03-17T06:07:55.379Z,72.42
2019-03-17T06:10:23.145Z,71.85
2019-03-17T06:12:50.878Z,71.46
2019-03-17T06:15:18.623Z,70.79
2019-03-17T06:17:46.405Z,71.11
2019-03-17T06:20:14.238Z,70.86
2019-03-17T06:22:42.355Z,70.42
2019-03-17T06:25:10.307Z,70.34
2019-03-17T06:27:38.067Z,69.39
2019-03-17T06:30:06.521Z,69.27
2019-03-17T06:32:34.218Z,69.35
2019-03-17T06:35:01.980Z,68.85
2019-03-17T06:37:31.186Z,68.82
2019-03-17T06:39:59.214Z,68.65
2019-03-17T06:42:26.974Z,68.44
2019-03-17T06:44:54.690Z,68.04
2019-03-17T06:47:22.476Z,68.05
2019-03-17T06:49:50.217Z,67.52
2019-03-17T06:52:17.959Z,67.56
2019-03-17T06:54:45.716Z,67.38
2019-03-17T06:57:13.430Z,67.51
2019-03-17T06:59:41.219Z,66.38
2019-03-17T07:02:08.939Z,66.84
2019-03-17T07:04:36.719Z,66.26
2019-03-17T07:07:04.464Z,65.97
2019-03-17T07:09:32.204Z,65.48
2019-03-17T07:12:00.169Z,65.66
2019-03-17T07:14:27.905Z,65.66
2019-03-17T07:16:55.663Z,65.98
2019-03-17T07:19:23.418Z,65.26
2019-03-17T07:21:51.179Z,65.00
2019-03-17T07:24:18.916Z,64.89
2019-03-17T07:26:46.702Z,64.55
2019-03-17T07:29:14.448Z,63.95
2019-03-17T07:31:42.220Z,63.46
2019-03-17T07:34:09.923Z,62.23
2019-03-17T07:36:37.689Z,61.16
2019-03-17T07:39:12.193Z,60.96
2019-03-17T07:41:36.811Z,60.92
2019-03-17T07:44:04.542Z,61.82
2019-03-17T07:46:32.314Z,61.33
2019-03-17T07:49:00.061Z,61.00
2019-03-17T07:51:27.829Z,61.01
2019-03-17T07:53:55.605Z,60.36
2019-03-17T07:56:23.399Z,60.40
2019-03-17T07:58:51.149Z,59.76
2019-03-17T08:01:18.929Z,58.68
2019-03-17T08:03:46.692Z,58.14
2019-03-17T08:06:14.434Z,57.89
2019-03-17T08:08:42.266Z,58.24
2019-03-17T08:11:10.139Z,58.19
2019-03-17T08:13:37.900Z,58.31
2019-03-17T08:16:06.006Z,57.09
2019-03-17T08:18:33.790Z,57.35
2019-03-17T08:21:01.616Z,56.76
2019-03-17T08:23:29.372Z,56.38
2019-03-17T08:25:57.108Z,56.68
2019-03-17T08:28:24.880Z,56.39
2019-03-17T08:30:53.695Z,56.34
2019-03-17T08:33:21.593Z,56.18
2019-03-17T08:35:49.381Z,56.06
2019-03-17T08:38:21.892Z,56.10
2019-03-17T08:40:46.818Z,56.53
2019-03-17T08:43:14.638Z,56.65
2019-03-17T08:45:42.398Z,55.79
2019-03-17T08:48:10.212Z,54.94
2019-03-17T08:50:37.908Z,54.46
2019-03-17T08:53:05.678Z,53.76
2019-03-17T08:55:33.471Z,52.71
2019-03-17T08:58:01.304Z,51.61
2019-03-17T09:00:29.079Z,51.87
2019-03-17T09:02:56.880Z,52.55
2019-03-17T09:05:24.647Z,52.34
2019-03-17T09:07:52.444Z,52.99
2019-03-17T09:10:20.309Z,53.13
2019-03-17T09:12:48.448Z,52.98
2019-03-17T09:15:16.247Z,53.11
2019-03-17T09:17:44.005Z,53.25
2019-03-17T09:20:11.833Z,52.60
2019-03-17T09:22:39.627Z,52.31
2019-03-17T09:25:08.306Z,52.02
2019-03-17T09:27:36.127Z,51.17
2019-03-17T09:30:04.947Z,50.58
2019-03-17T09:32:32.761Z,50.28
2019-03-17T09:35:00.561Z,49.90
2019-03-17T09:37:28.393Z,49.58
2019-03-17T09:39:56.195Z,48.35
2019-03-17T09:42:24.005Z,47.94
2019-03-17T09:44:51.797Z,47.74
2019-03-17T09:47:19.697Z,48.04
2019-03-17T09:49:47.765Z,48.29
2019-03-17T09:52:15.527Z,47.27
2019-03-17T09:54:43.356Z,45.25
2019-03-17T09:57:11.117Z,43.79
2019-03-17T09:59:38.963Z,42.96
2019-03-17T10:02:06.712Z,41.01
2019-03-17T10:04:34.463Z,40.49
2019-03-17T10:07:02.216Z,40.19
2019-03-17T10:09:29.999Z,39.36
2019-03-17T10:11:58.054Z,39.94
2019-03-17T10:14:26.021Z,40.96
2019-03-17T10:16:53.848Z,40.94
2019-03-17T10:19:21.549Z,41.10
2019-03-17T10:21:49.363Z,41.42
2019-03-17T10:24:17.084Z,41.25
2019-03-17T10:26:44.831Z,40.37
2019-03-17T10:29:12.582Z,37.96
2019-03-17T10:31:40.413Z,39.56
2019-03-17T10:34:08.174Z,41.53
2019-03-17T10:36:35.944Z,42.54
2019-03-17T10:39:12.444Z,43.47
2019-03-17T10:41:35.128Z,44.77
2019-03-17T10:44:02.875Z,41.02
2019-03-17T10:46:30.640Z,41.74
2019-03-17T10:48:58.416Z,43.09
2019-03-17T10:51:26.256Z,44.43
2019-03-17T10:53:54.034Z,45.63
2019-03-17T10:56:21.825Z,46.68
2019-03-17T10:58:49.545Z,46.97
2019-03-17T11:01:17.335Z,46.46
2019-03-17T11:03:45.150Z,46.54
2019-03-17T11:06:12.934Z,44.59
2019-03-17T11:08:40.708Z,43.82
2019-03-17T11:11:11.909Z,44.17
2019-03-17T11:13:38.558Z,44.54
2019-03-17T11:16:06.334Z,45.29
2019-03-17T11:18:34.130Z,45.31
2019-03-17T11:21:01.947Z,44.38
2019-03-17T11:23:29.785Z,43.03
2019-03-17T11:25:57.523Z,42.77
2019-03-17T11:28:25.347Z,44.23
2019-03-17T11:31:03.043Z,44.33
2019-03-17T11:33:30.978Z,44.57
2019-03-17T11:36:00.446Z,43.81
2019-03-17T11:38:30.707Z,44.49
2019-03-17T11:40:58.754Z,43.86
2019-03-17T11:43:29.244Z,38.84
2019-03-17T11:45:57.127Z,38.29
2019-03-17T11:48:25.117Z,39.77
2019-03-17T11:50:59.217Z,41.09
2019-03-17T11:53:29.428Z,42.29
2019-03-17T11:55:57.233Z,44.12
2019-03-17T11:58:25.129Z,44.91
2019-03-17T12:00:53.026Z,45.39
2019-03-17T12:03:23.862Z,46.58
2019-03-17T12:05:51.810Z,46.78
2019-03-17T12:08:22.728Z,46.79
2019-03-17T12:10:50.563Z,47.00
2019-03-17T12:13:25.777Z,46.74
2019-03-17T12:15:53.551Z,47.81
2019-03-17T12:18:21.343Z,48.16
2019-03-17T12:20:49.140Z,48.33
2019-03-17T12:23:16.944Z,49.00
2019-03-17T12:25:47.810Z,48.96
2019-03-17T12:28:15.638Z,49.45
2019-03-17T12:30:43.444Z,50.86
2019-03-17T12:33:11.273Z,51.84
2019-03-17T12:35:39.064Z,52.36
2019-03-17T12:38:06.961Z,53.25
2019-03-17T12:40:34.750Z,53.71
2019-03-17T12:43:02.537Z,54.74
2019-03-17T12:45:33.396Z,56.07
2019-03-17T12:48:01.212Z,58.63
2019-03-17T12:50:29.041Z,60.25
2019-03-17T12:52:56.806Z,60.22
2019-03-17T12:55:24.666Z,58.69
2019-03-17T12:57:52.481Z,59.32
2019-03-17T13:00:20.308Z,60.32
2019-03-17T13:02:48.089Z,60.97
2019-03-17T13:05:15.899Z,62.35
2019-03-17T13:07:43.703Z,63.14
2019-03-17T13:10:15.914Z,62.99
2019-03-17T13:12:43.061Z,64.26
2019-03-17T13:15:10.967Z,63.55
2019-03-17T13:17:38.789Z,63.44
2019-03-17T13:20:07.875Z,63.28
2019-03-17T13:22:35.597Z,62.69
2019-03-17T13:25:03.894Z,62.79
2019-03-17T13:27:31.696Z,62.63
2019-03-17T13:29:59.829Z,63.22
2019-03-17T13:32:27.763Z,62.87
2019-03-17T13:34:55.587Z,63.86
2019-03-17T13:37:23.359Z,63.52
2019-03-17T13:39:51.158Z,63.87
2019-03-17T13:42:18.936Z,62.24
2019-03-17T13:44:46.779Z,63.31
2019-03-17T13:47:14.580Z,62.22
2019-03-17T13:49:42.464Z,61.25
2019-03-17T13:52:10.230Z,62.01
2019-03-17T13:54:37.992Z,62.54
2019-03-17T13:57:05.823Z,63.86
2019-03-17T13:59:33.664Z,63.17
2019-03-17T14:02:01.428Z,62.39
2019-03-17T14:04:29.190Z,62.23
2019-03-17T14:06:56.994Z,62.63
2019-03-17T14:09:24.785Z,61.36
2019-03-17T14:11:52.567Z,62.46
2019-03-17T14:14:20.352Z,64.49
2019-03-17T14:16:48.137Z,66.68
2019-03-17T14:19:15.911Z,69.23
2019-03-17T14:21:43.706Z,68.55
2019-03-17T14:24:11.490Z,68.83
2019-03-17T14:26:39.294Z,70.38
2019-03-17T14:29:07.032Z,71.03
2019-03-17T14:31:35.122Z,71.92
2019-03-17T14:34:02.995Z,72.24
2019-03-17T14:36:31.039Z,73.79
2019-03-17T14:38:58.844Z,72.85
2019-03-17T14:41:26.607Z,70.84
2019-03-17T14:43:54.352Z,71.28
2019-03-17T14:46:22.181Z,72.54
2019-03-17T14:48:49.969Z,72.21
2019-03-17T14:51:18.490Z,72.32
2019-03-17T14:53:46.218Z,72.08
2019-03-17T14:56:13.993Z,71.54
2019-03-17T14:58:41.883Z,72.00
2019-03-17T15:01:09.626Z,70.91
2019-03-17T15:03:37.449Z,70.42
2019-03-17T15:06:05.203Z,69.69
2019-03-17T15:08:34.074Z,70.34
2019-03-17T15:11:06.058Z,69.62
2019-03-17T15:13:31.480Z,68.79
2019-03-17T15:16:03.043Z,68.21
2019-03-17T15:18:28.916Z,67.78
2019-03-17T15:20:56.729Z,67.46
2019-03-17T15:23:24.508Z,67.22
2019-03-17T15:25:52.295Z,66.31
2019-03-17T15:28:20.069Z,67.35
2019-03-17T15:31:05.487Z,66.81
2019-03-17T15:33:17.514Z,66.35
2019-03-17T15:35:45.298Z,66.50
2019-03-17T15:38:13.121Z,66.86
2019-03-17T15:40:40.953Z,67.28
2019-03-17T15:43:08.753Z,66.89
2019-03-17T15:45:36.519Z,66.29
2019-03-17T15:48:04.534Z,67.34
2019-03-17T15:50:32.340Z,67.00
2019-03-17T15:53:00.113Z,66.11
2019-03-17T15:55:27.930Z,66.94
2019-03-17T15:57:55.642Z,67.95
2019-03-17T16:00:26.336Z,68.60
2019-03-17T16:02:53.170Z,68.15
2019-03-17T16:05:21.017Z,68.04
2019-03-17T16:07:48.926Z,68.90
2019-03-17T16:10:17.982Z,68.22
2019-03-17T16:12:45.740Z,68.09
2019-03-17T16:15:13.712Z,67.91
2019-03-17T16:17:41.494Z,68.32
2019-03-17T16:20:12.329Z,68.27
2019-03-17T16:22:40.104Z,68.64
2019-03-17T16:25:08.503Z,68.13
2019-03-17T16:27:36.295Z,67.07
2019-03-17T16:30:05.471Z,67.14
2019-03-17T16:32:33.288Z,67.47
2019-03-17T16:35:01.104Z,66.41
2019-03-17T16:37:29.750Z,66.96
2019-03-17T16:39:57.567Z,66.58
2019-03-17T16:42:25.362Z,68.02
2019-03-17T16:44:53.441Z,68.14
2019-03-17T16:47:21.235Z,67.14
2019-03-17T16:49:49.007Z,66.14
2019-03-17T16:52:16.804Z,66.24
2019-03-17T16:54:46.394Z,65.59
2019-03-17T16:57:14.178Z,65.67
2019-03-17T16:59:41.990Z,65.98
2019-03-17T17:02:09.769Z,66.55
2019-03-17T17:04:37.595Z,65.71
2019-03-17T17:07:05.357Z,66.57
2019-03-17T17:09:33.422Z,65.81
2019-03-17T17:12:01.241Z,67.18
2019-03-17T17:14:29.366Z,67.51
2019-03-17T17:16:57.125Z,67.73
2019-03-17T17:19:24.965Z,66.87
2019-03-17T17:21:52.748Z,67.12
2019-03-17T17:24:20.503Z,67.10
2019-03-17T17:26:49.159Z,66.54
2019-03-17T17:29:16.957Z,67.07
2019-03-17T17:31:44.729Z,66.95
2019-03-17T17:34:12.503Z,66.90
2019-03-17T17:36:40.289Z,67.89
2019-03-17T17:39:09.007Z,69.12
2019-03-17T17:41:36.796Z,68.26
2019-03-17T17:44:04.659Z,67.72
2019-03-17T17:46:32.473Z,68.00
2019-03-17T17:49:00.281Z,67.84
2019-03-17T17:51:28.832Z,68.96
2019-03-17T17:53:56.633Z,69.21
2019-03-17T17:56:24.424Z,68.46
2019-03-17T17:58:52.328Z,68.51
2019-03-17T18:01:20.235Z,68.46
2019-03-17T18:03:51.915Z,68.95
2019-03-17T18:06:17.782Z,68.89
2019-03-17T18:08:45.566Z,68.80
2019-03-17T18:11:13.347Z,69.26
2019-03-17T18:13:41.195Z,69.73
2019-03-17T18:16:08.968Z,69.52
2019-03-17T18:18:36.764Z,70.05
2019-03-17T18:21:04.794Z,69.71
2019-03-17T18:23:32.582Z,69.69
2019-03-17T18:26:00.365Z,69.79
2019-03-17T18:28:28.612Z,70.15
2019-03-17T18:30:56.752Z,70.61
2019-03-17T18:33:24.808Z,70.99
2019-03-17T18:35:52.646Z,70.87
2019-03-17T18:38:20.606Z,70.88
2019-03-17T18:40:48.409Z,71.22
2019-03-17T18:43:16.479Z,71.39
2019-03-17T18:45:44.561Z,71.53
2019-03-17T18:48:12.344Z,71.67
2019-03-17T18:50:40.119Z,71.80
2019-03-17T18:53:10.956Z,71.76
2019-03-17T18:55:38.780Z,71.60
2019-03-17T18:58:06.603Z,71.59
2019-03-17T19:00:34.393Z,71.35
2019-03-17T19:03:02.210Z,70.87
2019-03-17T19:05:30.028Z,70.35
2019-03-17T19:07:57.851Z,70.50
2019-03-17T19:10:25.899Z,70.50
2019-03-17T19:12:53.690Z,70.70
2019-03-17T19:15:23.096Z,70.65
2019-03-17T19:17:50.960Z,71.28
2019-03-17T19:20:18.807Z,70.83
2019-03-17T19:22:46.909Z,70.99
2019-03-17T19:25:14.937Z,71.90
2019-03-17T19:27:42.773Z,72.00
2019-03-17T19:30:12.724Z,70.79
2019-03-17T19:32:40.693Z,70.95
2019-03-17T19:35:08.697Z,71.14
2019-03-17T19:37:36.509Z,70.46
2019-03-17T19:40:05.125Z,70.62
2019-03-17T19:42:32.922Z,70.53
2019-03-17T19:45:01.049Z,70.81
2019-03-17T19:47:28.844Z,70.63
2019-03-17T19:49:56.706Z,71.28
2019-03-17T19:52:24.508Z,71.40
2019-03-17T19:54:52.317Z,72.17
2019-03-17T19:57:20.109Z,72.08
2019-03-17T19:59:47.897Z,72.42
2019-03-17T20:02:15.719Z,72.23
2019-03-17T20:04:43.525Z,73.15
2019-03-17T20:07:11.276Z,73.08
2019-03-17T20:09:39.088Z,73.40
2019-03-17T20:12:06.867Z,74.60
2019-03-17T20:14:34.699Z,74.61
2019-03-17T20:17:02.504Z,73.87
2019-03-17T20:19:32.802Z,73.87
2019-03-17T20:22:00.621Z,74.28
2019-03-17T20:24:28.421Z,73.87
2019-03-17T20:26:56.222Z,73.77
2019-03-17T20:29:24.038Z,73.79
2019-03-17T20:31:51.950Z,74.00
2019-03-17T20:34:19.822Z,74.05
2019-03-17T20:36:50.600Z,73.83
2019-03-17T20:39:18.535Z,73.61
2019-03-17T20:41:46.397Z,73.67
2019-03-17T20:44:14.376Z,73.41
2019-03-17T20:46:44.984Z,72.81
2019-03-17T20:49:18.241Z,73.25
2019-03-17T20:51:46.181Z,72.88
2019-03-17T20:54:13.987Z,72.61
2019-03-17T20:56:41.741Z,72.75
2019-03-17T20:59:09.521Z,72.56
2019-03-17T21:01:37.329Z,71.92
2019-03-17T21:04:05.121Z,72.03
2019-03-17T21:06:33.363Z,71.95
2019-03-17T21:09:01.233Z,71.92
2019-03-17T21:11:29.183Z,71.12
2019-03-17T21:13:56.965Z,71.93
2019-03-17T21:16:24.823Z,70.61
2019-03-17T21:18:58.260Z,70.75
2019-03-17T21:21:26.061Z,70.99
2019-03-17T21:23:59.101Z,70.84
2019-03-17T21:26:29.891Z,70.47
2019-03-17T21:28:57.769Z,70.53
2019-03-17T21:31:25.593Z,70.38
2019-03-17T21:33:53.350Z,69.94
2019-03-17T21:36:21.263Z,70.07
2019-03-17T21:38:49.045Z,70.06
2019-03-17T21:43:45.443Z,70.58
2019-03-17T21:46:13.232Z,70.47
2019-03-17T21:48:40.972Z,70.78
2019-03-17T21:51:08.759Z,70.38
2019-03-17T21:53:36.515Z,70.54
2019-03-17T21:56:04.280Z,70.62
2019-03-17T21:58:32.022Z,71.05
2019-03-17T22:01:00.097Z,70.76
2019-03-17T22:03:27.848Z,70.89
2019-03-17T22:05:55.606Z,70.92
2019-03-17T22:08:23.390Z,70.90
2019-03-17T22:10:51.177Z,70.81
2019-03-17T22:13:18.943Z,70.91
2019-03-17T22:15:46.785Z,71.00
2019-03-17T22:18:14.562Z,70.77
2019-03-17T22:20:42.370Z,70.70
2019-03-17T22:23:10.123Z,70.90
2019-03-17T22:25:37.908Z,71.43
2019-03-17T22:28:08.570Z,71.31
2019-03-17T22:30:35.303Z,71.17
2019-03-17T22:33:03.111Z,71.10
2019-03-17T22:35:30.883Z,70.97
2019-03-17T22:37:58.668Z,71.03
2019-03-17T22:40:26.447Z,71.20
2019-03-17T22:42:54.230Z,71.40
2019-03-17T22:45:21.975Z,71.66
2019-03-17T22:47:49.746Z,70.97
2019-03-17T22:50:17.507Z,70.86
2019-03-17T22:52:45.258Z,70.78
2019-03-17T22:55:13.607Z,69.87
2019-03-17T22:57:41.377Z,70.07
2019-03-17T23:00:13.319Z,70.08
2019-03-17T23:02:41.098Z,69.62
2019-03-17T23:05:08.849Z,69.87
2019-03-17T23:07:37.011Z,69.81
2019-03-17T23:10:05.715Z,70.07
2019-03-17T23:12:33.529Z,69.39
2019-03-17T23:15:01.290Z,69.19
2019-03-17T23:17:29.095Z,69.00
2019-03-17T23:19:56.881Z,69.60
2019-03-17T23:22:24.672Z,70.08
2019-03-17T23:24:52.431Z,70.31
2019-03-17T23:27:20.180Z,70.52
2019-03-17T23:29:47.932Z,70.63
2019-03-17T23:32:15.749Z,70.90
2019-03-17T23:34:43.449Z,70.75
2019-03-17T23:37:11.221Z,70.50
2019-03-17T23:39:38.948Z,70.80
2019-03-17T23:42:06.709Z,70.40
2019-03-17T23:44:34.482Z,71.09
2019-03-17T23:47:02.213Z,70.96
2019-03-17T23:49:29.991Z,70.63
2019-03-17T23:51:57.723Z,70.94
2019-03-17T23:54:25.485Z,71.39
2019-03-17T23:56:53.242Z,71.32
2019-03-17T23:59:21.021Z,70.87
